MST,Max TemperatureF,Mean TemperatureF,Min TemperatureF,Max Dew PointF,MeanDew PointF,Min DewpointF,Max Humidity, Mean Humidity, Min Humidity, Max Sea Level PressureIn, Mean Sea Level PressureIn, Min Sea Level PressureIn, Max VisibilityMiles, Mean VisibilityMiles, Min VisibilityMiles, Max Wind SpeedMPH, Mean Wind SpeedMPH, Max Gust SpeedMPH,PrecipitationIn, CloudCover, Events, WindDirDegrees
2011-11-1,66,44,25,31,24,20,88,52,18,30.06,29.92,29.79,10,10,10,23,7,34,0.00,2,,264
2011-11-2,48,36,23,25,21,18,81,56,33,30.44,30.20,29.91,10,10,10,18,12,26,0.00,4,,315
2011-11-3,57,36,17,23,16,12,85,55,18,30.41,30.26,30.03,10,10,10,13,4,17,0.00,0,,114
2011-11-4,57,44,30,22,19,16,54,31,23,30.00,29.76,29.49,10,10,10,22,11,34,0.00,2,,128
2011-11-5,53,42,30,38,31,20,96,78,31,29.94,29.61,29.40,10,7,0,28,13,39,0.29,7,Fog-Rain-Snow,206
2011-11-6,39,34,28,30,26,24,88,72,55,30.03,29.97,29.92,10,10,10,9,3,,0.00,8,,157
2011-11-7,44,37,30,32,29,27,100,80,51,29.96,29.91,29.81,10,8,1,14,4,17,0.00,7,Snow,204
2011-11-8,45,35,24,29,24,20,88,67,42,30.34,30.13,29.91,10,10,10,14,6,22,0.00,0,,309
2011-11-9,45,31,17,29,22,14,89,74,48,30.57,30.48,30.35,10,10,10,12,5,,0.00,0,,102
2011-11-10,46,31,16,28,21,12,89,73,47,30.62,30.46,30.31,10,10,10,9,4,,0.00,0,,86
2011-11-11,45,32,19,30,24,16,89,71,42,30.29,30.11,29.98,10,10,9,8,2,,0.00,1,,129
2011-11-12,55,40,25,27,24,20,88,58,26,29.98,29.90,29.78,10,10,10,16,4,22,0.00,7,,186
2011-11-13,45,41,36,39,35,27,93,78,57,29.95,29.86,29.80,10,10,9,15,7,,0.04,6,Rain,228
2011-11-14,50,38,26,34,30,23,96,77,46,29.98,29.92,29.83,10,10,10,10,4,,0.00,1,,49
2011-11-15,50,36,21,31,27,19,89,69,41,30.04,29.99,29.92,10,10,10,14,4,,0.00,2,,38
2011-11-16,48,34,19,27,14,5,91,55,17,30.37,30.21,30.00,10,10,10,13,5,21,0.00,1,,36
2011-11-17,52,34,15,18,14,9,81,57,23,30.38,30.21,30.01,10,10,10,9,4,,0.00,0,,103
2011-11-18,53,37,21,24,21,16,82,59,30,30.01,29.86,29.68,10,10,10,13,4,,0.00,0,,177
2011-11-19,55,42,28,25,21,19,72,50,24,29.89,29.81,29.68,10,10,10,20,6,29,0.00,2,,173
2011-11-20,55,39,23,26,22,18,81,59,29,30.09,30.01,29.90,10,10,10,17,4,23,0.00,2,,108
2011-11-21,48,37,26,39,32,24,97,84,66,30.23,30.08,29.99,10,9,4,15,2,20,0.07,4,Rain,151
2011-11-22,51,36,21,33,27,20,92,73,46,30.42,30.34,30.23,10,10,10,9,4,,0.00,0,,79
2011-11-23,55,37,19,35,26,16,89,71,45,30.44,30.29,30.16,10,10,10,12,3,,0.00,0,,106
2011-11-24,57,39,21,28,22,17,88,54,23,30.19,30.06,29.90,10,10,10,13,4,23,0.00,3,,160
2011-11-25,53,43,33,38,28,14,100,66,29,30.14,29.98,29.87,10,10,8,18,6,26,0.04,3,Rain,350
2011-11-26,46,34,19,14,5,-3,65,34,15,30.56,30.41,30.18,10,10,10,23,8,32,0.00,0,,352
2011-11-27,51,32,14,15,9,4,80,49,16,30.66,30.55,30.47,10,10,10,13,6,,0.00,0,,36
2011-11-28,50,34,19,20,17,13,81,56,27,30.49,30.38,30.30,10,10,10,10,5,,0.00,0,,83
2011-11-29,52,36,19,22,18,15,81,56,26,30.39,30.31,30.23,10,10,10,10,5,,0.00,0,,113
2011-11-30,57,36,15,23,16,11,84,52,18,30.28,30.00,29.65,10,10,10,12,3,17,0.00,0,,111